sensor_id;sensor_type;location;lat;lon;timestamp;P1;durP1;ratioP1;P2;durP2;ratioP2
40252;SDS011;25972;51.854;4.534;2022-10-17T00:02:16;9.80;;;4.68;;
40252;SDS011;25972;51.854;4.534;2022-10-17T00:04:41;12.70;;;5.07;;
40252;SDS011;25972;51.854;4.534;2022-10-17T00:07:07;9.45;;;5.25;;
40252;SDS011;25972;51.854;4.534;2022-10-17T00:09:33;11.00;;;5.38;;
40252;SDS011;25972;51.854;4.534;2022-10-17T00:11:59;10.85;;;5.47;;
40252;SDS011;25972;51.854;4.534;2022-10-17T00:14:26;11.57;;;6.03;;
40252;SDS011;25972;51.854;4.534;2022-10-17T00:16:52;16.17;;;5.47;;
40252;SDS011;25972;51.854;4.534;2022-10-17T00:19:18;10.50;;;5.38;;
40252;SDS011;25972;51.854;4.534;2022-10-17T00:21:43;10.15;;;5.43;;
40252;SDS011;25972;51.854;4.534;2022-10-17T00:24:09;9.68;;;5.68;;
40252;SDS011;25972;51.854;4.534;2022-10-17T00:26:35;12.63;;;6.60;;
40252;SDS011;25972;51.854;4.534;2022-10-17T00:29:01;10.35;;;5.55;;
40252;SDS011;25972;51.854;4.534;2022-10-17T00:31:26;11.20;;;5.78;;
40252;SDS011;25972;51.854;4.534;2022-10-17T00:33:52;10.95;;;5.90;;
40252;SDS011;25972;51.854;4.534;2022-10-17T00:36:22;12.18;;;6.20;;
40252;SDS011;25972;51.854;4.534;2022-10-17T00:38:51;10.38;;;5.30;;
40252;SDS011;25972;51.854;4.534;2022-10-17T00:41:21;11.68;;;5.93;;
40252;SDS011;25972;51.854;4.534;2022-10-17T00:46:28;12.63;;;6.05;;
40252;SDS011;25972;51.854;4.534;2022-10-17T00:48:56;15.15;;;6.55;;
40252;SDS011;25972;51.854;4.534;2022-10-17T00:52:07;11.55;;;5.88;;
40252;SDS011;25972;51.854;4.534;2022-10-17T00:54:18;12.73;;;7.03;;
40252;SDS011;25972;51.854;4.534;2022-10-17T00:56:47;12.88;;;7.28;;
40252;SDS011;25972;51.854;4.534;2022-10-17T00:59:14;13.70;;;6.88;;
40252;SDS011;25972;51.854;4.534;2022-10-17T01:01:45;14.15;;;7.18;;
40252;SDS011;25972;51.854;4.534;2022-10-17T01:04:18;11.93;;;7.05;;
40252;SDS011;25972;51.854;4.534;2022-10-17T01:06:44;15.82;;;7.70;;
40252;SDS011;25972;51.854;4.534;2022-10-17T01:09:10;13.73;;;7.45;;
40252;SDS011;25972;51.854;4.534;2022-10-17T01:11:43;14.18;;;8.00;;
40252;SDS011;25972;51.854;4.534;2022-10-17T01:14:25;16.20;;;7.45;;
40252;SDS011;25972;51.854;4.534;2022-10-17T01:16:59;13.38;;;7.82;;
40252;SDS011;25972;51.854;4.534;2022-10-17T01:19:43;12.40;;;7.25;;
40252;SDS011;25972;51.854;4.534;2022-10-17T01:22:38;11.77;;;6.93;;
40252;SDS011;25972;51.854;4.534;2022-10-17T01:26:15;13.10;;;6.90;;
40252;SDS011;25972;51.854;4.534;2022-10-17T01:31:22;17.50;;;7.75;;
40252;SDS011;25972;51.854;4.534;2022-10-17T01:34:00;13.23;;;7.75;;
40252;SDS011;25972;51.854;4.534;2022-10-17T01:39:19;13.75;;;7.35;;
40252;SDS011;25972;51.854;4.534;2022-10-17T01:42:00;13.18;;;7.88;;
40252;SDS011;25972;51.854;4.534;2022-10-17T01:47:13;12.13;;;6.90;;
40252;SDS011;25972;51.854;4.534;2022-10-17T01:49:42;13.63;;;7.43;;
40252;SDS011;25972;51.854;4.534;2022-10-17T01:52:16;13.82;;;7.78;;
40252;SDS011;25972;51.854;4.534;2022-10-17T01:55:13;13.52;;;8.18;;
40252;SDS011;25972;51.854;4.534;2022-10-17T01:57:45;12.43;;;7.22;;
40252;SDS011;25972;51.854;4.534;2022-10-17T02:00:19;15.25;;;7.70;;
40252;SDS011;25972;51.854;4.534;2022-10-17T02:02:51;15.02;;;9.00;;
40252;SDS011;25972;51.854;4.534;2022-10-17T02:05:21;15.95;;;7.57;;
40252;SDS011;25972;51.854;4.534;2022-10-17T02:07:51;12.90;;;7.07;;
40252;SDS011;25972;51.854;4.534;2022-10-17T02:10:21;13.55;;;7.53;;
40252;SDS011;25972;51.854;4.534;2022-10-17T02:13:15;15.65;;;7.47;;
40252;SDS011;25972;51.854;4.534;2022-10-17T02:15:47;12.48;;;7.13;;
40252;SDS011;25972;51.854;4.534;2022-10-17T02:21:06;14.10;;;7.78;;
40252;SDS011;25972;51.854;4.534;2022-10-17T02:31:09;14.13;;;7.78;;
40252;SDS011;25972;51.854;4.534;2022-10-17T02:33:46;14.35;;;8.00;;
40252;SDS011;25972;51.854;4.534;2022-10-17T02:36:21;12.40;;;7.00;;
40252;SDS011;25972;51.854;4.534;2022-10-17T02:38:56;12.85;;;7.88;;
40252;SDS011;25972;51.854;4.534;2022-10-17T02:41:24;13.07;;;7.35;;
40252;SDS011;25972;51.854;4.534;2022-10-17T02:43:50;13.77;;;7.70;;
40252;SDS011;25972;51.854;4.534;2022-10-17T02:46:18;12.95;;;6.63;;
40252;SDS011;25972;51.854;4.534;2022-10-17T02:48:49;12.35;;;7.10;;
40252;SDS011;25972;51.854;4.534;2022-10-17T02:51:35;13.13;;;7.80;;
40252;SDS011;25972;51.854;4.534;2022-10-17T02:54:41;12.32;;;6.80;;
40252;SDS011;25972;51.854;4.534;2022-10-17T02:57:22;13.57;;;6.90;;
40252;SDS011;25972;51.854;4.534;2022-10-17T03:00:01;13.75;;;7.63;;
40252;SDS011;25972;51.854;4.534;2022-10-17T03:02:39;13.95;;;7.53;;
40252;SDS011;25972;51.854;4.534;2022-10-17T03:05:10;13.85;;;7.68;;
40252;SDS011;25972;51.854;4.534;2022-10-17T03:07:38;14.90;;;7.30;;
40252;SDS011;25972;51.854;4.534;2022-10-17T03:10:04;12.20;;;6.93;;
40252;SDS011;25972;51.854;4.534;2022-10-17T03:12:30;13.02;;;7.32;;
40252;SDS011;25972;51.854;4.534;2022-10-17T03:14:56;14.63;;;7.68;;
40252;SDS011;25972;51.854;4.534;2022-10-17T03:17:22;11.32;;;6.90;;
40252;SDS011;25972;51.854;4.534;2022-10-17T03:19:48;12.82;;;7.35;;
40252;SDS011;25972;51.854;4.534;2022-10-17T03:22:14;13.60;;;7.30;;
40252;SDS011;25972;51.854;4.534;2022-10-17T03:24:43;16.35;;;7.53;;
40252;SDS011;25972;51.854;4.534;2022-10-17T03:27:09;11.88;;;6.72;;
40252;SDS011;25972;51.854;4.534;2022-10-17T03:29:35;11.23;;;6.78;;
40252;SDS011;25972;51.854;4.534;2022-10-17T03:32:03;13.55;;;6.63;;
40252;SDS011;25972;51.854;4.534;2022-10-17T03:34:29;13.55;;;7.47;;
40252;SDS011;25972;51.854;4.534;2022-10-17T03:36:55;15.15;;;6.32;;
40252;SDS011;25972;51.854;4.534;2022-10-17T03:39:21;10.55;;;6.25;;
40252;SDS011;25972;51.854;4.534;2022-10-17T03:41:47;12.65;;;6.80;;
40252;SDS011;25972;51.854;4.534;2022-10-17T03:44:13;14.88;;;6.95;;
40252;SDS011;25972;51.854;4.534;2022-10-17T03:46:40;12.73;;;7.15;;
40252;SDS011;25972;51.854;4.534;2022-10-17T03:49:07;13.82;;;6.35;;
40252;SDS011;25972;51.854;4.534;2022-10-17T03:51:34;12.45;;;6.97;;
40252;SDS011;25972;51.854;4.534;2022-10-17T03:54:04;12.52;;;6.82;;
40252;SDS011;25972;51.854;4.534;2022-10-17T03:56:30;13.43;;;6.70;;
40252;SDS011;25972;51.854;4.534;2022-10-17T03:59:05;11.70;;;6.55;;
40252;SDS011;25972;51.854;4.534;2022-10-17T04:01:34;13.05;;;6.97;;
40252;SDS011;25972;51.854;4.534;2022-10-17T04:04:00;11.50;;;6.28;;
40252;SDS011;25972;51.854;4.534;2022-10-17T04:06:29;14.45;;;6.10;;
40252;SDS011;25972;51.854;4.534;2022-10-17T04:08:56;12.48;;;6.20;;
40252;SDS011;25972;51.854;4.534;2022-10-17T04:11:40;14.27;;;6.32;;
40252;SDS011;25972;51.854;4.534;2022-10-17T04:14:06;11.25;;;5.85;;
40252;SDS011;25972;51.854;4.534;2022-10-17T04:16:32;11.38;;;6.60;;
40252;SDS011;25972;51.854;4.534;2022-10-17T04:19:01;11.75;;;6.72;;
40252;SDS011;25972;51.854;4.534;2022-10-17T04:21:32;11.65;;;6.60;;
40252;SDS011;25972;51.854;4.534;2022-10-17T04:24:03;11.55;;;6.50;;
40252;SDS011;25972;51.854;4.534;2022-10-17T04:26:41;12.80;;;6.68;;
40252;SDS011;25972;51.854;4.534;2022-10-17T04:29:07;13.15;;;6.13;;
40252;SDS011;25972;51.854;4.534;2022-10-17T04:31:33;14.93;;;6.75;;
40252;SDS011;25972;51.854;4.534;2022-10-17T04:34:34;14.63;;;7.38;;
40252;SDS011;25972;51.854;4.534;2022-10-17T04:37:00;12.85;;;6.50;;
40252;SDS011;25972;51.854;4.534;2022-10-17T04:39:26;11.57;;;5.70;;
40252;SDS011;25972;51.854;4.534;2022-10-17T04:41:53;16.45;;;6.78;;
40252;SDS011;25972;51.854;4.534;2022-10-17T04:44:21;11.10;;;6.07;;
40252;SDS011;25972;51.854;4.534;2022-10-17T04:46:50;11.70;;;6.60;;
40252;SDS011;25972;51.854;4.534;2022-10-17T04:49:15;13.80;;;6.38;;
40252;SDS011;25972;51.854;4.534;2022-10-17T04:51:44;10.70;;;6.25;;
40252;SDS011;25972;51.854;4.534;2022-10-17T04:54:21;11.80;;;6.43;;
40252;SDS011;25972;51.854;4.534;2022-10-17T04:56:53;12.25;;;6.40;;
40252;SDS011;25972;51.854;4.534;2022-10-17T04:59:19;12.50;;;6.35;;
40252;SDS011;25972;51.854;4.534;2022-10-17T05:01:48;11.80;;;7.07;;
40252;SDS011;25972;51.854;4.534;2022-10-17T05:04:13;16.33;;;6.93;;
40252;SDS011;25972;51.854;4.534;2022-10-17T05:06:39;12.02;;;6.25;;
40252;SDS011;25972;51.854;4.534;2022-10-17T05:09:18;11.77;;;6.50;;
40252;SDS011;25972;51.854;4.534;2022-10-17T05:11:44;12.80;;;6.30;;
40252;SDS011;25972;51.854;4.534;2022-10-17T05:14:11;13.10;;;6.57;;
40252;SDS011;25972;51.854;4.534;2022-10-17T05:16:38;17.35;;;6.85;;
40252;SDS011;25972;51.854;4.534;2022-10-17T05:19:04;14.98;;;7.10;;
40252;SDS011;25972;51.854;4.534;2022-10-17T05:21:35;11.50;;;6.25;;
40252;SDS011;25972;51.854;4.534;2022-10-17T05:24:06;13.40;;;6.03;;
40252;SDS011;25972;51.854;4.534;2022-10-17T05:26:36;11.57;;;6.82;;
40252;SDS011;25972;51.854;4.534;2022-10-17T05:29:02;14.95;;;6.20;;
40252;SDS011;25972;51.854;4.534;2022-10-17T05:31:31;12.45;;;6.07;;
40252;SDS011;25972;51.854;4.534;2022-10-17T05:34:03;10.52;;;6.40;;
40252;SDS011;25972;51.854;4.534;2022-10-17T05:36:31;14.88;;;6.95;;
40252;SDS011;25972;51.854;4.534;2022-10-17T05:38:58;14.88;;;6.65;;
40252;SDS011;25972;51.854;4.534;2022-10-17T05:41:25;13.82;;;7.07;;
40252;SDS011;25972;51.854;4.534;2022-10-17T05:43:51;12.27;;;6.55;;
40252;SDS011;25972;51.854;4.534;2022-10-17T05:46:24;10.50;;;5.57;;
40252;SDS011;25972;51.854;4.534;2022-10-17T05:48:50;11.95;;;5.93;;
40252;SDS011;25972;51.854;4.534;2022-10-17T05:51:17;14.02;;;6.88;;
40252;SDS011;25972;51.854;4.534;2022-10-17T05:53:42;11.05;;;6.03;;
40252;SDS011;25972;51.854;4.534;2022-10-17T05:56:14;12.23;;;6.50;;
40252;SDS011;25972;51.854;4.534;2022-10-17T05:58:41;13.57;;;6.00;;
40252;SDS011;25972;51.854;4.534;2022-10-17T06:01:14;13.88;;;6.50;;
40252;SDS011;25972;51.854;4.534;2022-10-17T06:03:40;13.38;;;7.10;;
40252;SDS011;25972;51.854;4.534;2022-10-17T06:06:09;12.88;;;6.22;;
40252;SDS011;25972;51.854;4.534;2022-10-17T06:08:39;11.68;;;5.43;;
40252;SDS011;25972;51.854;4.534;2022-10-17T06:11:05;11.20;;;5.95;;
40252;SDS011;25972;51.854;4.534;2022-10-17T06:13:31;12.07;;;6.88;;
40252;SDS011;25972;51.854;4.534;2022-10-17T06:16:00;12.50;;;6.28;;
40252;SDS011;25972;51.854;4.534;2022-10-17T06:18:26;14.32;;;6.38;;
40252;SDS011;25972;51.854;4.534;2022-10-17T06:20:53;13.57;;;6.50;;
40252;SDS011;25972;51.854;4.534;2022-10-17T06:23:19;13.50;;;6.32;;
40252;SDS011;25972;51.854;4.534;2022-10-17T06:25:56;11.57;;;6.30;;
40252;SDS011;25972;51.854;4.534;2022-10-17T06:28:23;10.25;;;6.05;;
40252;SDS011;25972;51.854;4.534;2022-10-17T06:30:48;11.45;;;6.40;;
40252;SDS011;25972;51.854;4.534;2022-10-17T06:33:14;14.30;;;6.95;;
40252;SDS011;25972;51.854;4.534;2022-10-17T06:35:41;12.75;;;6.78;;
40252;SDS011;25972;51.854;4.534;2022-10-17T06:38:06;17.02;;;7.15;;
40252;SDS011;25972;51.854;4.534;2022-10-17T06:40:34;10.40;;;6.20;;
40252;SDS011;25972;51.854;4.534;2022-10-17T06:43:00;13.05;;;6.40;;
40252;SDS011;25972;51.854;4.534;2022-10-17T06:45:52;10.43;;;6.40;;
40252;SDS011;25972;51.854;4.534;2022-10-17T06:48:35;12.82;;;6.57;;
40252;SDS011;25972;51.854;4.534;2022-10-17T06:51:12;15.40;;;6.68;;
40252;SDS011;25972;51.854;4.534;2022-10-17T06:53:46;17.48;;;6.30;;
40252;SDS011;25972;51.854;4.534;2022-10-17T06:56:28;12.95;;;6.22;;
40252;SDS011;25972;51.854;4.534;2022-10-17T06:59:05;10.90;;;6.60;;
40252;SDS011;25972;51.854;4.534;2022-10-17T07:01:35;13.50;;;6.68;;
40252;SDS011;25972;51.854;4.534;2022-10-17T07:04:02;16.88;;;7.03;;
40252;SDS011;25972;51.854;4.534;2022-10-17T07:06:29;13.85;;;6.63;;
40252;SDS011;25972;51.854;4.534;2022-10-17T07:08:59;12.10;;;6.65;;
40252;SDS011;25972;51.854;4.534;2022-10-17T07:11:27;15.15;;;6.55;;
40252;SDS011;25972;51.854;4.534;2022-10-17T07:13:53;14.93;;;7.25;;
40252;SDS011;25972;51.854;4.534;2022-10-17T07:16:20;14.18;;;6.43;;
40252;SDS011;25972;51.854;4.534;2022-10-17T07:18:50;11.43;;;4.85;;
40252;SDS011;25972;51.854;4.534;2022-10-17T07:21:17;15.23;;;5.68;;
40252;SDS011;25972;51.854;4.534;2022-10-17T07:23:42;13.75;;;6.38;;
40252;SDS011;25972;51.854;4.534;2022-10-17T07:26:11;7.28;;;4.13;;
40252;SDS011;25972;51.854;4.534;2022-10-17T07:28:41;12.18;;;5.78;;
40252;SDS011;25972;51.854;4.534;2022-10-17T07:31:36;10.93;;;6.00;;
40252;SDS011;25972;51.854;4.534;2022-10-17T07:34:02;13.75;;;6.13;;
40252;SDS011;25972;51.854;4.534;2022-10-17T07:36:28;12.50;;;5.88;;
40252;SDS011;25972;51.854;4.534;2022-10-17T07:38:56;13.23;;;7.40;;
40252;SDS011;25972;51.854;4.534;2022-10-17T07:41:23;14.77;;;6.43;;
40252;SDS011;25972;51.854;4.534;2022-10-17T07:43:49;7.00;;;3.75;;
40252;SDS011;25972;51.854;4.534;2022-10-17T07:46:18;14.35;;;4.80;;
40252;SDS011;25972;51.854;4.534;2022-10-17T07:48:44;11.05;;;5.70;;
40252;SDS011;25972;51.854;4.534;2022-10-17T07:51:10;11.60;;;5.53;;
40252;SDS011;25972;51.854;4.534;2022-10-17T07:53:37;12.13;;;4.93;;
40252;SDS011;25972;51.854;4.534;2022-10-17T07:56:04;12.63;;;5.65;;
40252;SDS011;25972;51.854;4.534;2022-10-17T07:58:31;13.00;;;5.90;;
40252;SDS011;25972;51.854;4.534;2022-10-17T08:01:08;10.80;;;5.13;;
40252;SDS011;25972;51.854;4.534;2022-10-17T08:03:38;10.40;;;5.57;;
40252;SDS011;25972;51.854;4.534;2022-10-17T08:06:08;11.98;;;6.15;;
40252;SDS011;25972;51.854;4.534;2022-10-17T08:08:33;12.43;;;5.75;;
40252;SDS011;25972;51.854;4.534;2022-10-17T08:11:03;9.27;;;4.25;;
40252;SDS011;25972;51.854;4.534;2022-10-17T08:13:31;12.40;;;6.30;;
40252;SDS011;25972;51.854;4.534;2022-10-17T08:16:01;14.18;;;6.25;;
40252;SDS011;25972;51.854;4.534;2022-10-17T08:18:29;12.75;;;5.93;;
40252;SDS011;25972;51.854;4.534;2022-10-17T08:20:58;12.90;;;6.00;;
40252;SDS011;25972;51.854;4.534;2022-10-17T08:23:24;13.45;;;6.00;;
40252;SDS011;25972;51.854;4.534;2022-10-17T08:25:50;16.42;;;6.55;;
40252;SDS011;25972;51.854;4.534;2022-10-17T08:28:16;11.77;;;5.53;;
40252;SDS011;25972;51.854;4.534;2022-10-17T08:30:41;10.27;;;5.68;;
40252;SDS011;25972;51.854;4.534;2022-10-17T08:33:07;10.45;;;5.88;;
40252;SDS011;25972;51.854;4.534;2022-10-17T08:35:33;14.55;;;6.13;;
40252;SDS011;25972;51.854;4.534;2022-10-17T08:37:59;12.10;;;6.15;;
40252;SDS011;25972;51.854;4.534;2022-10-17T08:40:29;13.50;;;5.80;;
40252;SDS011;25972;51.854;4.534;2022-10-17T08:43:10;16.35;;;6.85;;
40252;SDS011;25972;51.854;4.534;2022-10-17T08:46:16;15.45;;;6.32;;
40252;SDS011;25972;51.854;4.534;2022-10-17T08:48:44;14.18;;;5.70;;
40252;SDS011;25972;51.854;4.534;2022-10-17T08:51:16;17.50;;;5.82;;
40252;SDS011;25972;51.854;4.534;2022-10-17T08:53:51;11.45;;;5.20;;
40252;SDS011;25972;51.854;4.534;2022-10-17T08:56:29;11.82;;;6.38;;
40252;SDS011;25972;51.854;4.534;2022-10-17T08:59:01;10.13;;;5.78;;
40252;SDS011;25972;51.854;4.534;2022-10-17T09:04:48;12.18;;;6.07;;
40252;SDS011;25972;51.854;4.534;2022-10-17T09:18:51;13.10;;;5.70;;
40252;SDS011;25972;51.854;4.534;2022-10-17T09:21:18;15.23;;;6.28;;
40252;SDS011;25972;51.854;4.534;2022-10-17T09:23:50;13.23;;;6.20;;
40252;SDS011;25972;51.854;4.534;2022-10-17T09:26:22;14.00;;;5.40;;
40252;SDS011;25972;51.854;4.534;2022-10-17T09:28:50;12.00;;;5.25;;
40252;SDS011;25972;51.854;4.534;2022-10-17T09:31:27;10.23;;;5.55;;
40252;SDS011;25972;51.854;4.534;2022-10-17T09:33:56;14.73;;;6.35;;
40252;SDS011;25972;51.854;4.534;2022-10-17T09:36:27;8.55;;;4.45;;
40252;SDS011;25972;51.854;4.534;2022-10-17T09:39:03;11.97;;;5.70;;
40252;SDS011;25972;51.854;4.534;2022-10-17T09:41:38;7.85;;;4.13;;
40252;SDS011;25972;51.854;4.534;2022-10-17T09:44:20;12.82;;;5.43;;
40252;SDS011;25972;51.854;4.534;2022-10-17T09:49:21;11.52;;;4.80;;
40252;SDS011;25972;51.854;4.534;2022-10-17T09:52:10;11.70;;;5.30;;
40252;SDS011;25972;51.854;4.534;2022-10-17T09:54:46;14.73;;;5.30;;
40252;SDS011;25972;51.854;4.534;2022-10-17T09:57:12;14.30;;;5.45;;
40252;SDS011;25972;51.854;4.534;2022-10-17T09:59:42;11.90;;;5.80;;
40252;SDS011;25972;51.854;4.534;2022-10-17T10:02:23;10.88;;;5.55;;
40252;SDS011;25972;51.854;4.534;2022-10-17T10:05:03;11.85;;;5.22;;
40252;SDS011;25972;51.854;4.534;2022-10-17T10:07:40;10.15;;;5.13;;
40252;SDS011;25972;51.854;4.534;2022-10-17T10:10:22;12.35;;;6.25;;
40252;SDS011;25972;51.854;4.534;2022-10-17T10:15:38;9.73;;;5.80;;
40252;SDS011;25972;51.854;4.534;2022-10-17T10:23:43;8.88;;;4.20;;
40252;SDS011;25972;51.854;4.534;2022-10-17T10:26:18;9.65;;;4.88;;
40252;SDS011;25972;51.854;4.534;2022-10-17T10:28:56;11.82;;;5.65;;
40252;SDS011;25972;51.854;4.534;2022-10-17T10:31:36;9.80;;;5.13;;
40252;SDS011;25972;51.854;4.534;2022-10-17T10:34:12;9.68;;;5.47;;
40252;SDS011;25972;51.854;4.534;2022-10-17T10:36:42;10.73;;;6.00;;
40252;SDS011;25972;51.854;4.534;2022-10-17T10:39:31;10.27;;;5.03;;
40252;SDS011;25972;51.854;4.534;2022-10-17T10:42:45;7.57;;;3.78;;
40252;SDS011;25972;51.854;4.534;2022-10-17T10:45:12;9.60;;;5.00;;
40252;SDS011;25972;51.854;4.534;2022-10-17T10:48:22;11.48;;;4.93;;
40252;SDS011;25972;51.854;4.534;2022-10-17T11:01:53;8.50;;;3.40;;
40252;SDS011;25972;51.854;4.534;2022-10-17T11:04:55;6.13;;;3.22;;
40252;SDS011;25972;51.854;4.534;2022-10-17T11:07:39;10.32;;;3.40;;
40252;SDS011;25972;51.854;4.534;2022-10-17T11:15:43;4.95;;;2.75;;
40252;SDS011;25972;51.854;4.534;2022-10-17T11:18:25;6.30;;;3.28;;
40252;SDS011;25972;51.854;4.534;2022-10-17T11:20:55;5.97;;;3.35;;
40252;SDS011;25972;51.854;4.534;2022-10-17T11:26:05;8.43;;;4.13;;
40252;SDS011;25972;51.854;4.534;2022-10-17T11:28:35;7.70;;;3.80;;
40252;SDS011;25972;51.854;4.534;2022-10-17T11:31:03;5.53;;;3.30;;
40252;SDS011;25972;51.854;4.534;2022-10-17T11:36:18;8.85;;;4.35;;
40252;SDS011;25972;51.854;4.534;2022-10-17T11:38:49;7.72;;;3.63;;
40252;SDS011;25972;51.854;4.534;2022-10-17T11:41:38;6.88;;;3.53;;
40252;SDS011;25972;51.854;4.534;2022-10-17T11:44:31;9.05;;;4.05;;
40252;SDS011;25972;51.854;4.534;2022-10-17T11:52:40;10.52;;;5.78;;
40252;SDS011;25972;51.854;4.534;2022-10-17T11:55:22;9.23;;;5.15;;
40252;SDS011;25972;51.854;4.534;2022-10-17T11:57:55;10.68;;;6.00;;
40252;SDS011;25972;51.854;4.534;2022-10-17T12:00:59;7.80;;;4.38;;
40252;SDS011;25972;51.854;4.534;2022-10-17T12:06:46;13.98;;;6.68;;
40252;SDS011;25972;51.854;4.534;2022-10-17T12:11:56;16.80;;;6.97;;
40252;SDS011;25972;51.854;4.534;2022-10-17T12:16:59;12.02;;;6.80;;
40252;SDS011;25972;51.854;4.534;2022-10-17T12:19:27;14.30;;;8.32;;
40252;SDS011;25972;51.854;4.534;2022-10-17T12:22:01;27.00;;;14.35;;
40252;SDS011;25972;51.854;4.534;2022-10-17T12:24:42;13.70;;;7.18;;
40252;SDS011;25972;51.854;4.534;2022-10-17T12:27:20;12.55;;;6.88;;
40252;SDS011;25972;51.854;4.534;2022-10-17T12:29:47;9.20;;;5.40;;
40252;SDS011;25972;51.854;4.534;2022-10-17T12:32:14;10.93;;;7.20;;
40252;SDS011;25972;51.854;4.534;2022-10-17T12:34:53;12.07;;;6.35;;
40252;SDS011;25972;51.854;4.534;2022-10-17T12:48:46;9.80;;;5.43;;
40252;SDS011;25972;51.854;4.534;2022-10-17T12:53:40;15.90;;;6.10;;
40252;SDS011;25972;51.854;4.534;2022-10-17T12:56:13;12.77;;;7.32;;
40252;SDS011;25972;51.854;4.534;2022-10-17T12:58:44;11.82;;;7.65;;
40252;SDS011;25972;51.854;4.534;2022-10-17T13:01:20;12.50;;;7.20;;
40252;SDS011;25972;51.854;4.534;2022-10-17T13:03:51;10.23;;;6.03;;
40252;SDS011;25972;51.854;4.534;2022-10-17T13:06:26;15.23;;;7.93;;
40252;SDS011;25972;51.854;4.534;2022-10-17T13:08:58;11.63;;;7.80;;
40252;SDS011;25972;51.854;4.534;2022-10-17T13:11:26;11.70;;;6.95;;
40252;SDS011;25972;51.854;4.534;2022-10-17T13:13:56;8.50;;;5.25;;
40252;SDS011;25972;51.854;4.534;2022-10-17T13:16:30;13.50;;;8.32;;
40252;SDS011;25972;51.854;4.534;2022-10-17T13:18:57;14.82;;;9.77;;
40252;SDS011;25972;51.854;4.534;2022-10-17T13:21:24;13.40;;;7.53;;
40252;SDS011;25972;51.854;4.534;2022-10-17T13:23:50;12.27;;;7.22;;
40252;SDS011;25972;51.854;4.534;2022-10-17T13:29:04;10.73;;;6.45;;
40252;SDS011;25972;51.854;4.534;2022-10-17T13:31:37;14.20;;;6.38;;
40252;SDS011;25972;51.854;4.534;2022-10-17T13:34:05;9.68;;;5.90;;
40252;SDS011;25972;51.854;4.534;2022-10-17T13:36:42;13.82;;;6.75;;
40252;SDS011;25972;51.854;4.534;2022-10-17T13:39:12;11.65;;;5.78;;
40252;SDS011;25972;51.854;4.534;2022-10-17T13:41:41;10.23;;;5.15;;
40252;SDS011;25972;51.854;4.534;2022-10-17T13:44:26;10.98;;;5.40;;
40252;SDS011;25972;51.854;4.534;2022-10-17T13:46:57;15.85;;;4.18;;
40252;SDS011;25972;51.854;4.534;2022-10-17T13:49:32;8.32;;;3.78;;
40252;SDS011;25972;51.854;4.534;2022-10-17T13:52:02;7.10;;;3.50;;
40252;SDS011;25972;51.854;4.534;2022-10-17T13:54:34;10.65;;;3.80;;
40252;SDS011;25972;51.854;4.534;2022-10-17T13:57:16;8.70;;;4.05;;
40252;SDS011;25972;51.854;4.534;2022-10-17T13:59:52;8.10;;;3.80;;
40252;SDS011;25972;51.854;4.534;2022-10-17T14:02:33;9.48;;;3.78;;
40252;SDS011;25972;51.854;4.534;2022-10-17T14:05:07;9.32;;;4.57;;
40252;SDS011;25972;51.854;4.534;2022-10-17T14:10:17;7.30;;;3.00;;
40252;SDS011;25972;51.854;4.534;2022-10-17T14:12:45;9.18;;;3.00;;
40252;SDS011;25972;51.854;4.534;2022-10-17T14:15:14;4.57;;;2.33;;
40252;SDS011;25972;51.854;4.534;2022-10-17T14:17:41;6.10;;;2.20;;
40252;SDS011;25972;51.854;4.534;2022-10-17T14:20:18;9.95;;;3.15;;
40252;SDS011;25972;51.854;4.534;2022-10-17T14:22:45;6.03;;;2.92;;
40252;SDS011;25972;51.854;4.534;2022-10-17T14:30:40;10.55;;;2.50;;
40252;SDS011;25972;51.854;4.534;2022-10-17T14:33:12;6.20;;;2.28;;
40252;SDS011;25972;51.854;4.534;2022-10-17T14:35:51;7.22;;;2.65;;
40252;SDS011;25972;51.854;4.534;2022-10-17T14:38:18;7.45;;;2.00;;
40252;SDS011;25972;51.854;4.534;2022-10-17T14:40:49;6.60;;;2.20;;
40252;SDS011;25972;51.854;4.534;2022-10-17T14:43:27;3.40;;;1.98;;
40252;SDS011;25972;51.854;4.534;2022-10-17T14:46:00;5.65;;;1.90;;
40252;SDS011;25972;51.854;4.534;2022-10-17T14:48:27;9.20;;;2.13;;
40252;SDS011;25972;51.854;4.534;2022-10-17T14:53:36;8.30;;;2.20;;
40252;SDS011;25972;51.854;4.534;2022-10-17T14:56:23;7.40;;;2.30;;
40252;SDS011;25972;51.854;4.534;2022-10-17T14:58:52;5.18;;;2.28;;
40252;SDS011;25972;51.854;4.534;2022-10-17T15:01:18;5.13;;;2.00;;
40252;SDS011;25972;51.854;4.534;2022-10-17T15:03:44;6.40;;;2.20;;
40252;SDS011;25972;51.854;4.534;2022-10-17T15:06:17;6.80;;;1.70;;
40252;SDS011;25972;51.854;4.534;2022-10-17T15:08:45;5.50;;;2.33;;
40252;SDS011;25972;51.854;4.534;2022-10-17T15:11:11;11.70;;;2.42;;
40252;SDS011;25972;51.854;4.534;2022-10-17T15:13:37;6.22;;;2.08;;
40252;SDS011;25972;51.854;4.534;2022-10-17T15:16:17;6.65;;;2.28;;
40252;SDS011;25972;51.854;4.534;2022-10-17T15:18:44;3.78;;;2.13;;
40252;SDS011;25972;51.854;4.534;2022-10-17T15:21:11;4.43;;;1.90;;
40252;SDS011;25972;51.854;4.534;2022-10-17T15:23:38;4.38;;;2.22;;
40252;SDS011;25972;51.854;4.534;2022-10-17T15:26:19;6.00;;;2.50;;
40252;SDS011;25972;51.854;4.534;2022-10-17T15:28:47;9.82;;;2.40;;
40252;SDS011;25972;51.854;4.534;2022-10-17T15:31:15;6.38;;;2.42;;
40252;SDS011;25972;51.854;4.534;2022-10-17T15:33:43;6.05;;;2.20;;
40252;SDS011;25972;51.854;4.534;2022-10-17T15:36:25;5.47;;;2.47;;
40252;SDS011;25972;51.854;4.534;2022-10-17T15:38:55;6.57;;;2.50;;
40252;SDS011;25972;51.854;4.534;2022-10-17T15:41:23;5.82;;;2.50;;
40252;SDS011;25972;51.854;4.534;2022-10-17T15:43:50;4.32;;;2.10;;
40252;SDS011;25972;51.854;4.534;2022-10-17T15:46:18;4.20;;;2.00;;
40252;SDS011;25972;51.854;4.534;2022-10-17T15:48:46;5.97;;;2.45;;
40252;SDS011;25972;51.854;4.534;2022-10-17T15:51:12;6.22;;;2.30;;
40252;SDS011;25972;51.854;4.534;2022-10-17T15:53:38;5.20;;;2.17;;
40252;SDS011;25972;51.854;4.534;2022-10-17T15:56:05;6.43;;;2.20;;
40252;SDS011;25972;51.854;4.534;2022-10-17T15:58:36;4.10;;;2.00;;
40252;SDS011;25972;51.854;4.534;2022-10-17T16:01:04;6.63;;;1.98;;
40252;SDS011;25972;51.854;4.534;2022-10-17T16:03:31;6.10;;;2.03;;
40252;SDS011;25972;51.854;4.534;2022-10-17T16:05:57;5.82;;;2.08;;
40252;SDS011;25972;51.854;4.534;2022-10-17T16:08:23;5.57;;;1.90;;
40252;SDS011;25972;51.854;4.534;2022-10-17T16:10:50;5.20;;;1.95;;
40252;SDS011;25972;51.854;4.534;2022-10-17T16:13:17;4.15;;;2.10;;
40252;SDS011;25972;51.854;4.534;2022-10-17T16:15:45;7.32;;;2.38;;
40252;SDS011;25972;51.854;4.534;2022-10-17T16:18:10;7.47;;;2.53;;
40252;SDS011;25972;51.854;4.534;2022-10-17T16:20:36;4.72;;;1.92;;
40252;SDS011;25972;51.854;4.534;2022-10-17T16:23:02;7.22;;;2.20;;
40252;SDS011;25972;51.854;4.534;2022-10-17T16:25:29;6.03;;;1.85;;
40252;SDS011;25972;51.854;4.534;2022-10-17T16:27:57;4.88;;;2.20;;
40252;SDS011;25972;51.854;4.534;2022-10-17T16:30:24;7.43;;;2.15;;
40252;SDS011;25972;51.854;4.534;2022-10-17T16:32:52;4.43;;;1.95;;
40252;SDS011;25972;51.854;4.534;2022-10-17T16:35:20;3.40;;;1.83;;
40252;SDS011;25972;51.854;4.534;2022-10-17T16:37:47;4.93;;;1.80;;
40252;SDS011;25972;51.854;4.534;2022-10-17T16:40:14;4.95;;;2.00;;
40252;SDS011;25972;51.854;4.534;2022-10-17T16:42:40;5.10;;;2.00;;
40252;SDS011;25972;51.854;4.534;2022-10-17T16:45:06;5.55;;;2.30;;
40252;SDS011;25972;51.854;4.534;2022-10-17T16:47:32;5.93;;;1.85;;
40252;SDS011;25972;51.854;4.534;2022-10-17T16:49:58;2.95;;;1.63;;
40252;SDS011;25972;51.854;4.534;2022-10-17T16:52:24;5.72;;;1.85;;
40252;SDS011;25972;51.854;4.534;2022-10-17T16:54:50;7.68;;;2.30;;